Time;durP1;ratioP1;P1;durP2;ratioP2;P2;SDS_P1;SDS_P2;PMS_P1;PMS_P2;Temp;Humidity;BMP_temperature;BMP_pressure;BME280_temperature;BME280_humidity;BME280_pressure;Samples;Min_cycle;Max_cycle;Signal;HPM_P1;HPM_P2
2023/06/20 00:00:55;;;;;;;5.28;3.83;;;;;;;17.37;81.10;95774.03;2115492;28;20043;-71
2023/06/20 00:01:56;;;;;;;4.97;4.03;;;;;;;17.34;80.76;95776.03;2115454;28;20044;-71
2023/06/20 00:02:57;;;;;;;9.38;4.63;;;;;;;17.36;80.51;95774.97;2115233;28;20037;-71
2023/06/20 00:03:58;;;;;;;5.70;3.75;;;;;;;17.25;80.39;95758.41;2114415;28;20051;-71
2023/06/20 00:05:08;;;;;;;6.95;4.10;;;;;;;17.28;80.22;95769.47;2114779;28;20423;-71
2023/06/20 00:06:09;;;;;;;7.03;4.18;;;;;;;17.28;79.78;95768.66;2114273;28;20060;-71
2023/06/20 00:07:10;;;;;;;6.10;4.47;;;;;;;17.23;80.42;95761.13;2115263;28;20040;-71
2023/06/20 00:08:11;;;;;;;4.95;4.00;;;;;;;17.21;80.98;95768.28;2115377;28;20039;-71
2023/06/20 00:09:12;;;;;;;7.40;4.40;;;;;;;17.18;80.57;95765.88;2115467;28;20409;-71
2023/06/20 00:10:14;;;;;;;6.18;3.90;;;;;;;17.17;80.33;95762.44;2114638;28;20047;-71
2023/06/20 00:11:15;;;;;;;5.28;4.00;;;;;;;17.14;80.67;95757.44;2114514;28;20051;-71
2023/06/20 00:12:16;;;;;;;4.93;3.50;;;;;;;17.05;80.54;95746.78;2115426;28;20047;-71
2023/06/20 00:13:17;;;;;;;6.18;3.80;;;;;;;17.06;80.49;95748.47;2115363;28;20044;-71
2023/06/20 00:14:18;;;;;;;6.03;4.18;;;;;;;17.04;80.50;95753.00;2114540;28;20369;-71
2023/06/20 00:15:25;;;;;;;10.70;4.53;;;;;;;17.01;80.76;95748.84;2115732;28;20173;-71
2023/06/20 00:16:26;;;;;;;6.82;4.43;;;;;;;16.98;81.13;95752.53;2114586;28;20059;-71
2023/06/20 00:17:27;;;;;;;5.53;3.83;;;;;;;16.97;81.59;95755.25;2114701;28;20047;-71
2023/06/20 00:18:29;;;;;;;6.18;4.20;;;;;;;16.89;81.44;95742.75;2115505;28;20058;-71
2023/06/20 00:19:31;;;;;;;7.07;4.13;;;;;;;16.96;81.67;95754.41;2114244;28;20501;-71
2023/06/20 00:20:32;;;;;;;6.47;3.92;;;;;;;16.94;81.46;95758.94;2105247;28;20059;-71
2023/06/20 00:21:33;;;;;;;5.20;4.03;;;;;;;16.91;81.56;95753.94;2106365;28;20055;-71
2023/06/20 00:22:34;;;;;;;5.05;3.80;;;;;;;16.89;81.77;95753.25;2115253;28;20069;-71
2023/06/20 00:23:36;;;;;;;6.13;3.92;;;;;;;16.86;81.58;95758.69;2114591;28;20501;-71
2023/06/20 00:24:37;;;;;;;5.75;3.97;;;;;;;16.83;82.38;95756.31;2115253;28;20056;-71
2023/06/20 00:25:38;;;;;;;6.25;3.97;;;;;;;16.81;81.96;95758.19;2115279;28;20052;-71
2023/06/20 00:26:39;;;;;;;5.47;3.90;;;;;;;16.79;81.75;95761.91;2114420;28;20517;-71
2023/06/20 00:27:40;;;;;;;7.45;4.22;;;;;;;16.78;82.16;95763.69;2114816;28;20051;-71
2023/06/20 00:28:41;;;;;;;4.97;3.90;;;;;;;16.78;82.55;95755.81;2115251;28;20066;-72
2023/06/20 00:29:43;;;;;;;8.35;4.03;;;;;;;16.77;82.65;95756.78;2115082;28;20040;-71
2023/06/20 00:30:44;;;;;;;5.97;4.40;;;;;;;16.80;83.11;95753.09;2114978;28;20028;-71
2023/06/20 00:31:45;;;;;;;5.53;4.20;;;;;;;16.79;82.32;95747.03;2115177;28;20044;-71
2023/06/20 00:32:46;;;;;;;7.35;4.38;;;;;;;16.78;82.32;95750.56;2114120;28;20051;-71
2023/06/20 00:33:47;;;;;;;6.57;4.60;;;;;;;16.81;82.04;95755.59;2114862;28;20046;-71
2023/06/20 00:34:48;;;;;;;6.93;4.43;;;;;;;16.82;82.71;95751.19;2115025;28;20435;-71
2023/06/20 00:35:49;;;;;;;6.75;4.20;;;;;;;16.81;82.51;95760.00;2105957;28;20043;-71
2023/06/20 00:36:51;;;;;;;7.72;4.78;;;;;;;16.80;82.52;95758.34;2105913;28;20043;-71
2023/06/20 00:37:52;;;;;;;6.78;4.85;;;;;;;16.79;83.03;95762.75;2105166;28;20044;-71
2023/06/20 00:38:54;;;;;;;6.40;4.30;;;;;;;16.79;82.57;95759.31;2105057;28;20044;-71
2023/06/20 00:39:55;;;;;;;5.38;4.43;;;;;;;16.76;82.26;95763.78;2105250;28;20467;-71
2023/06/20 00:40:56;;;;;;;7.97;4.78;;;;;;;16.73;82.53;95768.41;2105135;28;20079;-71
2023/06/20 00:41:57;;;;;;;6.65;5.30;;;;;;;16.71;83.12;95767.72;2114936;28;20088;-71
2023/06/20 00:42:59;;;;;;;7.85;4.72;;;;;;;16.66;82.35;95769.84;2105114;28;20044;-71
2023/06/20 00:44:03;;;;;;;5.53;4.32;;;;;;;16.56;82.53;95759.19;2105962;28;20045;-71
2023/06/20 00:45:23;;;;;;;5.63;4.70;;;;;;;16.60;83.29;95767.66;2105793;28;20422;-71
2023/06/20 00:46:25;;;;;;;7.50;4.40;;;;;;;16.61;83.10;95774.59;2083832;28;20093;-71
2023/06/20 00:47:28;;;;;;;6.32;5.00;;;;;;;16.57;82.58;95773.13;2091248;28;20083;-71
2023/06/20 00:48:29;;;;;;;7.63;5.30;;;;;;;16.54;83.62;95771.56;2105184;28;20060;-71
2023/06/20 00:49:30;;;;;;;6.90;4.78;;;;;;;16.52;82.91;95768.25;2105883;28;20055;-71
2023/06/20 00:50:32;;;;;;;6.82;4.72;;;;;;;16.53;83.89;95769.91;2113995;28;20382;-71
2023/06/20 00:51:33;;;;;;;7.50;5.38;;;;;;;16.47;84.46;95763.34;2105985;28;20118;-71
2023/06/20 00:52:34;;;;;;;6.35;4.60;;;;;;;16.53;84.01;95769.91;2097058;28;20063;-62
2023/06/20 00:53:35;;;;;;;7.78;4.97;;;;;;;16.53;83.81;95775.97;2096645;28;20466;-63
2023/06/20 00:54:36;;;;;;;5.82;4.80;;;;;;;16.56;84.25;95781.97;2105151;28;20051;-63
2023/06/20 00:55:37;;;;;;;6.95;4.75;;;;;;;16.54;84.14;95785.53;2097466;28;20037;-63
2023/06/20 00:56:38;;;;;;;6.10;4.90;;;;;;;16.54;83.92;95795.16;2089133;28;20060;-63
2023/06/20 00:57:41;;;;;;;6.20;5.18;;;;;;;16.48;83.63;95791.22;2105881;28;20404;-63
2023/06/20 00:58:42;;;;;;;8.68;5.13;;;;;;;16.51;84.29;95806.72;2105940;28;20043;-63
2023/06/20 00:59:44;;;;;;;7.07;5.10;;;;;;;16.52;84.40;95810.19;2105996;28;20482;-63
2023/06/20 01:00:45;;;;;;;6.65;4.78;;;;;;;16.47;84.24;95815.75;2104781;28;20052;-63
2023/06/20 01:01:47;;;;;;;9.68;5.43;;;;;;;16.51;83.88;95816.38;2105839;28;20495;-63
2023/06/20 01:02:48;;;;;;;5.95;4.68;;;;;;;16.51;84.54;95822.44;2114339;28;20062;-63
2023/06/20 01:03:50;;;;;;;7.05;5.50;;;;;;;16.49;84.11;95824.34;2104946;28;20064;-63
2023/06/20 01:04:51;;;;;;;7.53;4.93;;;;;;;16.49;84.89;95823.50;2105878;28;20047;-63
2023/06/20 01:06:10;;;;;;;6.55;4.90;;;;;;;16.48;85.02;95833.16;2097123;28;20385;-63
2023/06/20 01:07:28;;;;;;;6.38;4.75;;;;;;;16.48;85.54;95825.28;2099817;28;20048;-63
2023/06/20 01:08:50;;;;;;;8.98;5.13;;;;;;;16.46;85.43;95821.09;2108675;28;20052;-63
2023/06/20 01:09:55;;;;;;;7.93;5.35;;;;;;;16.38;85.67;95815.59;2105806;28;20040;-63
2023/06/20 01:11:19;;;;;;;6.90;4.80;;;;;;;16.45;85.98;95825.50;2081335;28;20436;-63
2023/06/20 01:12:57;;;;;;;6.72;4.80;;;;;;;16.46;86.08;95824.56;2098068;28;20052;-63
2023/06/20 01:14:07;;;;;;;6.75;5.13;;;;;;;16.45;85.73;95828.13;2094998;28;20100;-62
2023/06/20 01:15:18;;;;;;;6.32;4.65;;;;;;;16.36;85.96;95813.09;2093161;28;20080;-62
2023/06/20 01:16:53;;;;;;;6.35;4.55;;;;;;;16.39;86.13;95827.75;2083943;28;20449;-62
2023/06/20 01:18:06;;;;;;;8.00;5.45;;;;;;;16.39;86.02;95827.75;2082052;28;20041;-62
2023/06/20 01:19:19;;;;;;;6.38;4.80;;;;;;;16.39;86.00;95833.84;2087652;28;20044;-62
2023/06/20 01:20:27;;;;;;;6.40;4.90;;;;;;;16.38;86.26;95841.78;2101666;28;20446;-63
2023/06/20 01:21:40;;;;;;;6.65;5.25;;;;;;;16.35;85.78;95837.59;2105058;28;20051;-63
2023/06/20 01:23:06;;;;;;;6.55;4.57;;;;;;;16.30;85.91;95824.88;2081941;28;20051;-63
2023/06/20 01:24:13;;;;;;;5.72;4.28;;;;;;;16.34;85.75;95832.50;2096333;28;20043;-63
2023/06/20 01:25:18;;;;;;;7.25;4.75;;;;;;;16.36;86.45;95823.59;2090566;28;20045;-63
2023/06/20 01:26:57;;;;;;;7.15;4.90;;;;;;;16.41;86.28;95825.84;2090060;28;20041;-63
2023/06/20 01:28:04;;;;;;;5.75;4.50;;;;;;;16.41;85.95;95828.47;2058903;28;20062;-63
2023/06/20 01:29:12;;;;;;;6.68;4.75;;;;;;;16.32;85.84;95807.22;2099065;28;20527;-63
2023/06/20 01:30:18;;;;;;;7.25;4.70;;;;;;;16.40;85.69;95822.38;2105173;28;20118;-62
2023/06/20 01:31:30;;;;;;;4.80;4.30;;;;;;;16.31;85.92;95821.28;2089483;28;20052;-63
2023/06/20 01:32:32;;;;;;;5.90;4.65;;;;;;;16.40;85.08;95835.50;2082300;28;20397;-63
2023/06/20 01:33:43;;;;;;;9.60;4.82;;;;;;;16.29;86.32;95822.34;2081952;28;20057;-63
2023/06/20 01:34:51;;;;;;;7.10;4.93;;;;;;;16.38;84.96;95847.03;2098239;28;20132;-63
2023/06/20 01:35:52;;;;;;;6.68;4.80;;;;;;;16.36;85.36;95846.31;2107174;28;20055;-63
2023/06/20 01:36:56;;;;;;;6.80;4.65;;;;;;;16.36;86.11;95849.78;2089028;28;20052;-63
2023/06/20 01:37:59;;;;;;;8.18;4.60;;;;;;;16.37;85.50;95851.44;2088810;28;20049;-63
2023/06/20 01:39:02;;;;;;;7.22;4.80;;;;;;;16.40;85.27;95850.38;2097750;28;20060;-63
2023/06/20 01:40:05;;;;;;;6.38;4.55;;;;;;;16.41;85.33;95860.78;2105768;28;20040;-63
2023/06/20 01:41:07;;;;;;;8.57;4.88;;;;;;;16.44;85.80;95868.41;2089148;28;20041;-63
2023/06/20 01:42:08;;;;;;;6.88;4.50;;;;;;;16.48;85.66;95861.97;2098043;28;20036;-63
2023/06/20 01:43:09;;;;;;;6.15;4.47;;;;;;;16.52;85.48;95866.06;2097291;28;20605;-63
2023/06/20 01:44:11;;;;;;;7.25;4.45;;;;;;;16.55;85.53;95862.38;2097014;28;20060;-62
2023/06/20 01:45:12;;;;;;;5.32;4.50;;;;;;;16.62;85.09;95875.88;2088888;28;20052;-63
2023/06/20 01:46:14;;;;;;;6.43;4.65;;;;;;;16.66;85.28;95878.16;2072440;28;20058;-62
2023/06/20 01:47:15;;;;;;;6.25;4.25;;;;;;;16.70;85.48;95887.44;2080891;28;20374;-63
2023/06/20 01:48:17;;;;;;;6.28;4.32;;;;;;;16.76;85.24;95904.56;2081024;28;20045;-63
2023/06/20 01:49:18;;;;;;;7.18;4.75;;;;;;;16.85;84.16;95937.16;2097489;28;20059;-63
2023/06/20 01:50:19;;;;;;;6.20;4.22;;;;;;;16.83;83.85;95939.88;2080663;28;20049;-63
2023/06/20 01:51:20;;;;;;;5.88;4.10;;;;;;;16.92;83.23;95947.09;2088296;28;20049;-63
2023/06/20 01:52:22;;;;;;;7.05;5.13;;;;;;;16.93;82.47;95930.38;2097350;28;20056;-63
2023/06/20 01:53:23;;;;;;;8.63;5.22;;;;;;;16.94;82.15;95923.34;2088899;28;20080;-62
2023/06/20 01:54:27;;;;;;;8.90;6.03;;;;;;;16.93;81.43;95945.31;2097213;28;20057;-63
2023/06/20 01:55:29;;;;;;;7.93;5.18;;;;;;;16.98;82.04;95951.03;2088693;28;20060;-61
2023/06/20 01:56:30;;;;;;;7.53;5.63;;;;;;;16.87;82.09;95941.34;2072746;28;20053;-62
2023/06/20 01:57:32;;;;;;;9.18;6.30;;;;;;;16.90;82.21;95954.22;2089669;28;20053;-63
2023/06/20 01:58:33;;;;;;;7.32;6.20;;;;;;;16.94;82.22;95944.34;2097185;28;20056;-63
2023/06/20 01:59:35;;;;;;;8.20;5.95;;;;;;;16.84;82.93;95930.22;2080831;28;20093;-63
2023/06/20 02:00:36;;;;;;;10.18;6.45;;;;;;;16.84;82.27;95949.44;2096769;28;20049;-63
2023/06/20 02:01:37;;;;;;;7.30;6.10;;;;;;;16.69;82.62;95930.38;2097440;28;20045;-62
2023/06/20 02:02:38;;;;;;;8.10;6.68;;;;;;;16.83;82.63;95937.25;2080219;28;20500;-62
2023/06/20 02:03:41;;;;;;;8.80;5.82;;;;;;;16.83;82.71;95931.19;2080009;28;20057;-63
2023/06/20 02:04:42;;;;;;;8.90;6.55;;;;;;;16.81;82.47;95933.91;2089463;28;20044;-63
2023/06/20 02:05:43;;;;;;;13.10;6.45;;;;;;;16.79;82.98;95956.81;2105294;28;20178;-63
2023/06/20 02:06:44;;;;;;;6.97;5.55;;;;;;;16.79;82.69;95950.72;2079728;28;20404;-63
2023/06/20 02:07:45;;;;;;;6.75;5.63;;;;;;;16.78;82.49;95934.13;2080637;28;20049;-64
2023/06/20 02:08:46;;;;;;;8.88;5.43;;;;;;;16.82;82.92;95940.84;2088843;28;20049;-63
2023/06/20 02:09:48;;;;;;;9.27;6.32;;;;;;;16.81;82.86;95951.44;2080623;28;20068;-63
2023/06/20 02:10:49;;;;;;;10.15;5.80;;;;;;;16.74;83.50;95938.75;2097483;28;20040;-63
2023/06/20 02:11:50;;;;;;;7.80;5.90;;;;;;;16.80;82.59;95942.72;2096598;28;20089;-63
2023/06/20 02:12:52;;;;;;;7.03;5.60;;;;;;;16.83;82.67;95952.16;2104610;28;20052;-63
2023/06/20 02:13:53;;;;;;;10.65;6.15;;;;;;;16.81;83.09;95944.38;2105507;28;20040;-63
2023/06/20 02:14:54;;;;;;;6.80;5.60;;;;;;;16.83;82.98;95933.81;2088718;28;20468;-64
2023/06/20 02:15:55;;;;;;;7.60;5.72;;;;;;;16.83;82.84;95942.50;2088769;28;20052;-63
2023/06/20 02:16:56;;;;;;;6.45;5.25;;;;;;;16.79;83.14;95933.19;2097168;28;20055;-63
2023/06/20 02:17:59;;;;;;;7.57;5.90;;;;;;;16.83;82.55;95942.50;2105664;28;20064;-64
2023/06/20 02:19:03;;;;;;;8.48;5.40;;;;;;;16.85;82.73;95942.41;2104800;28;20446;-64
2023/06/20 02:20:05;;;;;;;6.38;5.32;;;;;;;16.85;82.42;95945.84;2097472;28;20040;-63
2023/06/20 02:21:10;;;;;;;7.53;5.63;;;;;;;16.84;82.13;95935.47;2097507;28;20049;-63
2023/06/20 02:22:12;;;;;;;7.65;5.30;;;;;;;16.94;82.16;95947.78;2096624;28;20063;-63
2023/06/20 02:23:15;;;;;;;7.50;5.18;;;;;;;16.93;82.01;95945.31;2096695;28;20060;-64
2023/06/20 02:24:19;;;;;;;6.10;5.20;;;;;;;16.97;81.57;95944.97;2097533;28;20048;-64
2023/06/20 02:25:21;;;;;;;8.55;5.38;;;;;;;17.01;81.77;95949.97;2088693;28;20064;-64
2023/06/20 02:26:25;;;;;;;6.50;5.03;;;;;;;17.02;81.41;95960.34;2096994;28;20056;-63
2023/06/20 02:27:27;;;;;;;10.38;5.30;;;;;;;17.05;81.32;95960.13;2098285;28;20055;-63
2023/06/20 02:28:28;;;;;;;7.35;5.18;;;;;;;17.11;80.63;95961.47;2098475;28;20503;-63
2023/06/20 02:29:31;;;;;;;8.20;5.10;;;;;;;17.04;80.47;95934.00;2098800;28;20055;-63
2023/06/20 02:30:32;;;;;;;7.18;4.68;;;;;;;17.22;79.64;95964.13;2082252;28;20053;-63
2023/06/20 02:31:39;;;;;;;7.25;5.60;;;;;;;17.28;79.95;95966.31;2082194;28;20049;-63
2023/06/20 02:32:40;;;;;;;6.20;4.90;;;;;;;17.31;79.46;95967.88;2107306;28;20055;-63
2023/06/20 02:33:42;;;;;;;8.00;5.32;;;;;;;17.24;79.62;95950.88;2107062;28;20410;-63
2023/06/20 02:34:44;;;;;;;8.25;5.03;;;;;;;17.28;79.48;95953.19;2098824;28;20468;-63
2023/06/20 02:35:45;;;;;;;6.72;5.22;;;;;;;17.36;79.16;95965.72;2098666;28;20502;-63
2023/06/20 02:36:47;;;;;;;8.65;5.05;;;;;;;17.27;79.40;95948.03;2090468;28;20060;-63
2023/06/20 02:37:48;;;;;;;7.95;5.25;;;;;;;17.38;79.97;95969.09;2081539;28;20052;-64
2023/06/20 02:38:49;;;;;;;6.97;5.03;;;;;;;17.39;79.23;95973.38;2073568;28;20049;-63
2023/06/20 02:39:50;;;;;;;6.82;5.07;;;;;;;17.39;79.34;95974.19;2090200;28;20051;-63
2023/06/20 02:40:51;;;;;;;6.25;5.05;;;;;;;17.41;79.29;95974.09;2106907;28;20392;-63
2023/06/20 02:41:52;;;;;;;6.22;5.53;;;;;;;17.41;78.88;95972.31;2107146;28;20040;-63
2023/06/20 02:42:54;;;;;;;7.07;5.40;;;;;;;17.48;79.18;95974.47;2106853;28;20036;-64
2023/06/20 02:43:56;;;;;;;7.47;5.35;;;;;;;17.50;78.65;95975.19;2106752;28;20052;-63
2023/06/20 02:44:57;;;;;;;7.35;5.30;;;;;;;17.53;79.01;95977.59;2097849;28;20048;-63
2023/06/20 02:46:12;;;;;;;7.35;5.38;;;;;;;17.48;78.30;95964.81;2107126;28;20050;-64
2023/06/20 02:47:22;;;;;;;6.55;5.47;;;;;;;17.55;78.26;95973.06;2083667;28;20437;-64
2023/06/20 02:48:31;;;;;;;7.25;4.97;;;;;;;17.58;78.58;95978.06;2086319;28;20068;-63
2023/06/20 02:49:49;;;;;;;9.38;5.47;;;;;;;17.61;77.60;95980.47;2082547;28;20484;-63
2023/06/20 02:50:59;;;;;;;6.90;5.72;;;;;;;17.63;78.01;95983.81;2089010;28;20053;-63
2023/06/20 02:52:24;;;;;;;7.00;5.15;;;;;;;17.64;77.75;95974.97;2099741;28;20056;-63
2023/06/20 02:53:48;;;;;;;7.65;5.35;;;;;;;17.68;77.92;95986.09;2101336;28;20134;-63
2023/06/20 02:55:00;;;;;;;7.00;5.43;;;;;;;17.69;77.96;95983.34;2060324;28;20054;-63
2023/06/20 02:56:02;;;;;;;7.00;6.05;;;;;;;17.64;77.05;95974.97;2082718;28;20053;-63
2023/06/20 02:57:05;;;;;;;7.10;5.72;;;;;;;17.70;76.93;95973.72;2075245;28;20041;-63
2023/06/20 02:58:14;;;;;;;5.90;5.25;;;;;;;17.78;76.75;95980.03;2073937;28;20050;-64
2023/06/20 02:59:15;;;;;;;7.53;5.65;;;;;;;17.83;76.45;95985.81;2077096;28;20053;-64
2023/06/20 03:00:16;;;;;;;6.70;5.50;;;;;;;17.72;76.90;95977.88;2082097;28;20057;-63
2023/06/20 03:01:25;;;;;;;6.55;5.45;;;;;;;17.80;76.67;95985.19;2081838;28;20046;-64
2023/06/20 03:02:28;;;;;;;7.65;5.53;;;;;;;17.70;76.97;95968.44;2084661;28;20045;-63
2023/06/20 03:03:36;;;;;;;6.65;5.70;;;;;;;17.68;77.20;95973.81;2090410;28;20052;-63
2023/06/20 03:04:37;;;;;;;6.60;5.50;;;;;;;17.79;77.30;95987.00;2091957;28;20477;-63
2023/06/20 03:05:40;;;;;;;8.05;5.60;;;;;;;17.74;77.16;95977.75;2081797;28;20065;-63
2023/06/20 03:06:42;;;;;;;7.93;5.75;;;;;;;17.68;76.96;95972.97;2082458;28;20057;-64
2023/06/20 03:07:43;;;;;;;7.20;5.80;;;;;;;17.76;77.35;95984.56;2090467;28;20496;-64
2023/06/20 03:08:46;;;;;;;6.18;5.50;;;;;;;17.77;77.00;95980.97;2090203;28;20051;-64
2023/06/20 03:09:47;;;;;;;7.90;5.57;;;;;;;17.76;76.91;95984.56;2090134;28;20128;-64
2023/06/20 03:10:48;;;;;;;6.75;5.30;;;;;;;17.76;76.71;95983.72;2098715;28;20044;-64
2023/06/20 03:11:50;;;;;;;7.80;5.53;;;;;;;17.68;76.58;95981.69;2106197;28;20479;-64
2023/06/20 03:12:51;;;;;;;8.05;5.18;;;;;;;17.76;76.75;95997.69;2081282;28;20461;-63
2023/06/20 03:13:52;;;;;;;6.88;5.43;;;;;;;17.77;77.41;95998.53;2081834;28;20073;-64
2023/06/20 03:14:53;;;;;;;7.07;5.72;;;;;;;17.76;77.23;96000.31;2090223;28;20056;-63
2023/06/20 03:15:57;;;;;;;8.48;5.70;;;;;;;17.74;77.07;95996.97;2097643;28;20146;-63
2023/06/20 03:16:59;;;;;;;6.75;5.82;;;;;;;17.72;77.05;95998.91;2106655;28;20400;-64
2023/06/20 03:18:00;;;;;;;9.82;5.75;;;;;;;17.73;77.08;96000.56;2098139;28;20040;-64
2023/06/20 03:19:03;;;;;;;8.13;5.28;;;;;;;17.73;77.59;96005.81;2090459;28;20417;-63
2023/06/20 03:20:09;;;;;;;7.68;5.53;;;;;;;17.67;77.27;95994.91;2089962;28;20048;-63
2023/06/20 03:21:10;;;;;;;6.40;5.43;;;;;;;17.72;76.94;95998.03;2091407;28;20061;-63
2023/06/20 03:22:11;;;;;;;6.35;5.60;;;;;;;17.71;76.89;96006.88;2098051;28;20416;-63
2023/06/20 03:23:12;;;;;;;10.27;5.60;;;;;;;17.67;77.56;95998.41;2098153;28;20052;-63
2023/06/20 03:24:13;;;;;;;7.63;5.63;;;;;;;17.60;77.97;95991.94;2097532;28;20100;-63
2023/06/20 03:25:15;;;;;;;7.40;5.55;;;;;;;17.60;78.05;96005.06;2106595;28;20051;-64
2023/06/20 03:26:16;;;;;;;7.00;5.47;;;;;;;17.63;78.05;96004.81;2106844;28;20082;-63
2023/06/20 03:27:17;;;;;;;8.55;5.28;;;;;;;17.61;78.10;96009.34;2106521;28;20048;-64
2023/06/20 03:28:18;;;;;;;8.10;5.45;;;;;;;17.67;77.52;96014.16;2115225;28;20372;-63
2023/06/20 03:29:24;;;;;;;9.23;5.40;;;;;;;17.67;77.34;96010.69;2105604;28;20052;-63
2023/06/20 03:30:26;;;;;;;6.00;5.20;;;;;;;17.66;77.21;96011.63;2097621;28;20074;-63
2023/06/20 03:31:28;;;;;;;7.15;5.28;;;;;;;17.66;77.42;96007.22;2105545;28;20048;-63
2023/06/20 03:32:31;;;;;;;8.13;5.93;;;;;;;17.68;77.11;96013.19;2098345;28;20048;-64
2023/06/20 03:33:32;;;;;;;6.47;5.28;;;;;;;17.70;77.00;96013.09;2105738;28;20401;-64
2023/06/20 03:34:33;;;;;;;6.82;5.53;;;;;;;17.70;77.15;96015.72;2114839;28;20069;-63
2023/06/20 03:35:36;;;;;;;6.78;5.28;;;;;;;17.70;76.67;96011.31;2105929;28;20060;-63
2023/06/20 03:36:38;;;;;;;6.30;5.03;;;;;;;17.75;76.92;96017.03;2097956;28;20049;-64
2023/06/20 03:37:39;;;;;;;8.93;5.57;;;;;;;17.78;77.55;96022.06;2097456;28;20108;-64
2023/06/20 03:38:42;;;;;;;7.13;5.78;;;;;;;17.80;76.72;96016.72;2089741;28;20138;-64
2023/06/20 03:39:43;;;;;;;6.75;5.43;;;;;;;17.81;76.58;96018.41;2106363;28;20507;-64
2023/06/20 03:40:44;;;;;;;7.47;5.65;;;;;;;17.83;77.32;96019.97;2105636;28;20431;-64
2023/06/20 03:41:46;;;;;;;7.95;5.35;;;;;;;17.88;76.14;96018.75;2097971;28;20048;-64
2023/06/20 03:42:48;;;;;;;6.68;5.50;;;;;;;17.88;76.61;96016.97;2097954;28;20049;-64
2023/06/20 03:43:50;;;;;;;7.90;5.32;;;;;;;17.90;76.59;96009.81;2098441;28;20460;-64
2023/06/20 03:44:51;;;;;;;8.85;5.15;;;;;;;17.93;76.30;96017.44;2106318;28;20139;-64
2023/06/20 03:45:52;;;;;;;6.97;5.22;;;;;;;17.91;76.03;96010.63;2097886;28;20041;-64
2023/06/20 03:46:53;;;;;;;8.32;5.00;;;;;;;17.98;76.44;96014.47;2105861;28;20048;-63
2023/06/20 03:47:55;;;;;;;6.70;5.13;;;;;;;17.98;76.16;96014.47;2114697;28;20051;-64
2023/06/20 03:48:56;;;;;;;8.50;5.32;;;;;;;17.98;76.51;96012.69;2106228;28;20451;-64
2023/06/20 03:49:57;;;;;;;7.82;5.60;;;;;;;18.01;76.18;96014.25;2097471;28;20480;-64
2023/06/20 03:50:59;;;;;;;6.32;5.22;;;;;;;18.05;75.91;96020.94;2098057;28;20068;-64
2023/06/20 03:52:01;;;;;;;6.72;4.78;;;;;;;18.06;75.62;96019.97;2097852;28;20040;-64
2023/06/20 03:53:02;;;;;;;6.28;5.68;;;;;;;18.10;75.87;96024.06;2097918;28;20048;-64
2023/06/20 03:54:03;;;;;;;7.22;5.40;;;;;;;18.10;75.65;96023.25;2106443;28;20040;-64
2023/06/20 03:55:05;;;;;;;8.98;5.43;;;;;;;18.04;75.66;96011.38;2105539;28;20464;-64
2023/06/20 03:56:06;;;;;;;6.47;5.60;;;;;;;18.15;74.85;96021.91;2097911;28;20395;-64
2023/06/20 03:57:09;;;;;;;7.80;4.78;;;;;;;18.13;75.63;96026.44;2097864;28;20051;-64
2023/06/20 03:58:10;;;;;;;8.32;5.47;;;;;;;18.15;75.68;96019.28;2106421;28;20040;-64
2023/06/20 03:59:14;;;;;;;5.80;4.82;;;;;;;18.19;75.62;96019.88;2105379;28;20399;-64
2023/06/20 04:00:15;;;;;;;5.53;4.57;;;;;;;18.16;75.55;96013.06;2098233;28;20044;-64
2023/06/20 04:01:16;;;;;;;6.13;5.40;;;;;;;18.22;75.30;96017.84;2097862;28;20059;-64
2023/06/20 04:02:17;;;;;;;5.85;5.22;;;;;;;18.22;74.86;96023.09;2097459;28;20079;-64
2023/06/20 04:03:18;;;;;;;5.75;4.70;;;;;;;18.16;75.09;96006.97;2097715;28;20526;-64
2023/06/20 04:04:20;;;;;;;8.73;5.10;;;;;;;18.25;75.41;96014.16;2106305;28;20092;-64
2023/06/20 04:05:22;;;;;;;8.38;5.28;;;;;;;18.27;75.41;96013.06;2114681;28;20060;-63
2023/06/20 04:06:29;;;;;;;8.88;5.40;;;;;;;18.28;74.79;96011.28;2105843;28;20393;-64
2023/06/20 04:07:31;;;;;;;8.00;4.90;;;;;;;18.27;75.39;96009.63;2098220;28;20056;-64
2023/06/20 04:08:33;;;;;;;6.47;5.03;;;;;;;18.22;75.01;96003.88;2106481;28;20082;-64
2023/06/20 04:09:34;;;;;;;6.72;4.50;;;;;;;18.32;75.29;96011.88;2106123;28;20519;-64
2023/06/20 04:10:37;;;;;;;5.38;4.70;;;;;;;18.33;74.50;96005.66;2097809;28;20049;-64
2023/06/20 04:11:38;;;;;;;5.72;4.93;;;;;;;18.32;75.35;96007.47;2097919;28;20381;-64
2023/06/20 04:12:41;;;;;;;7.65;5.10;;;;;;;18.34;74.97;96010.00;2105587;28;20052;-64
2023/06/20 04:13:42;;;;;;;6.13;5.00;;;;;;;18.31;74.67;96000.53;2106328;28;20051;-63
2023/06/20 04:14:43;;;;;;;6.10;5.03;;;;;;;18.37;74.42;96001.84;2097852;28;20067;-64
2023/06/20 04:15:44;;;;;;;8.63;5.15;;;;;;;18.34;75.09;96005.56;2105400;28;20071;-64
2023/06/20 04:16:47;;;;;;;5.28;4.55;;;;;;;18.33;75.11;96003.03;2106398;28;20056;-64
2023/06/20 04:17:48;;;;;;;7.18;4.43;;;;;;;18.39;74.84;96007.81;2106413;28;20474;-64
2023/06/20 04:18:49;;;;;;;5.95;5.13;;;;;;;18.44;74.45;96003.03;2097915;28;20051;-64
2023/06/20 04:19:51;;;;;;;7.30;5.53;;;;;;;18.40;74.59;96014.75;2097943;28;20043;-64
2023/06/20 04:20:54;;;;;;;8.45;5.45;;;;;;;18.37;74.62;96015.84;2106059;28;20051;-64
2023/06/20 04:21:55;;;;;;;7.47;5.13;;;;;;;18.37;74.55;96017.63;2106704;28;20036;-64
2023/06/20 04:22:56;;;;;;;12.30;5.25;;;;;;;18.35;74.97;96022.16;2105374;28;20044;-64
2023/06/20 04:23:59;;;;;;;8.73;5.95;;;;;;;18.32;75.06;96022.41;2097080;28;20071;-64
2023/06/20 04:25:00;;;;;;;8.23;5.45;;;;;;;18.33;74.41;96016.19;2097834;28;20051;-64
2023/06/20 04:26:02;;;;;;;8.57;5.13;;;;;;;18.26;74.32;96008.78;2097797;28;20044;-64
2023/06/20 04:27:03;;;;;;;8.90;5.55;;;;;;;18.25;74.37;96001.00;2097666;28;20056;-64
2023/06/20 04:28:04;;;;;;;6.22;5.22;;;;;;;18.33;74.76;96014.38;2097535;28;20053;-64
2023/06/20 04:29:14;;;;;;;7.78;5.22;;;;;;;18.33;75.27;96013.56;2098263;28;20443;-63
2023/06/20 04:30:16;;;;;;;8.77;5.60;;;;;;;18.25;74.98;96004.47;2089529;28;20045;-63
2023/06/20 04:31:19;;;;;;;6.85;5.30;;;;;;;18.28;75.13;96012.13;2097627;28;20060;-64
2023/06/20 04:32:20;;;;;;;9.55;5.97;;;;;;;18.27;75.57;96022.75;2114392;28;20044;-64
2023/06/20 04:33:22;;;;;;;9.25;5.55;;;;;;;18.34;75.25;96026.59;2106165;28;20051;-63
2023/06/20 04:34:24;;;;;;;8.25;5.03;;;;;;;18.38;74.61;96027.19;2097690;28;20418;-64
2023/06/20 04:35:26;;;;;;;7.15;5.60;;;;;;;18.41;75.26;96030.41;2096721;28;20126;-64
2023/06/20 04:36:28;;;;;;;7.13;5.90;;;;;;;18.42;75.10;96024.19;2105799;28;20058;-64
2023/06/20 04:37:31;;;;;;;9.27;5.32;;;;;;;18.33;74.97;96013.56;2098152;28;20484;-64
2023/06/20 04:38:37;;;;;;;6.88;5.45;;;;;;;18.49;74.92;96029.81;2097475;28;20143;-64
2023/06/20 04:39:38;;;;;;;7.65;5.65;;;;;;;18.50;74.01;96027.06;2097612;28;20048;-64
2023/06/20 04:40:39;;;;;;;5.45;4.80;;;;;;;18.56;74.34;96030.16;2105889;28;20483;-64
2023/06/20 04:41:40;;;;;;;8.55;5.65;;;;;;;18.58;74.26;96028.22;2097557;28;20093;-64
2023/06/20 04:42:41;;;;;;;7.45;4.72;;;;;;;18.64;74.38;96027.78;2097706;28;20468;-64
2023/06/20 04:43:44;;;;;;;7.25;5.32;;;;;;;18.71;74.11;96024.53;2097941;28;20056;-64
2023/06/20 04:44:48;;;;;;;7.18;5.00;;;;;;;18.80;73.33;96017.72;2105948;28;20051;-64
2023/06/20 04:45:49;;;;;;;7.35;5.68;;;;;;;18.83;73.56;96017.47;2097762;28;20426;-64
2023/06/20 04:46:50;;;;;;;7.45;5.18;;;;;;;18.88;73.25;96020.59;2097663;28;20047;-64
2023/06/20 04:47:51;;;;;;;7.95;5.43;;;;;;;18.95;73.17;96034.94;2089485;28;20162;-62
2023/06/20 04:48:53;;;;;;;7.55;5.63;;;;;;;19.06;73.22;96033.22;2096755;28;20055;-64
2023/06/20 04:49:54;;;;;;;9.57;5.85;;;;;;;19.02;72.72;96022.09;2096685;28;20043;-64
2023/06/20 04:50:58;;;;;;;8.45;5.20;;;;;;;19.14;73.12;96044.00;2097593;28;20146;-64
2023/06/20 04:51:59;;;;;;;7.97;4.97;;;;;;;19.14;72.93;96046.63;2097707;28;20037;-64
2023/06/20 04:53:01;;;;;;;7.22;5.20;;;;;;;19.11;72.64;96038.94;2097337;28;20044;-64
2023/06/20 04:54:02;;;;;;;9.20;5.20;;;;;;;19.11;72.44;96038.94;2097496;28;20048;-63
2023/06/20 04:55:03;;;;;;;7.22;5.05;;;;;;;19.19;72.63;96039.16;2097819;28;20059;-63
2023/06/20 04:56:04;;;;;;;7.45;5.13;;;;;;;19.07;72.95;96025.19;2104851;28;20052;-64
2023/06/20 04:57:05;;;;;;;7.63;5.30;;;;;;;19.22;72.45;96038.94;2106555;28;20036;-64
2023/06/20 04:58:07;;;;;;;8.82;7.38;;;;;;;19.30;72.53;96044.41;2097457;28;20397;-64
2023/06/20 04:59:09;;;;;;;7.45;5.25;;;;;;;19.15;73.16;96043.84;2089209;28;20104;-63